Scroll down
FLIGHT INFORMATION
Southwest Airlines

SWA875

At Arrival Gate

PHNL
 PHLI
DATE: 2021-02-05
GATE: 4
GATE DEPARTURE: 19:25
TAKEOFF: 19:38
DATE: 2021-02-05
GATE: 7
LANDING: 20:03
GATE ARRIVAL: 20:08
FLIGHT DATA
Crew: 
Speed: 
406 kts
Altitude: 
14,002 ft
Stage Length: 
88.4 nm
Block Time: 
0.6 hrs
Flight Time: 
0.4 hrs
Fuel Used: 
3,539 lb
Cleared Route: PHNL LIH PHLI
TRACK DATA
50,000 ft 1,000 kts
AIRCRAFT INFO AND CUMULATIVE STATS
Aircraft Type: 
B738SSW
Registration: 
SELCAL: 
BEGP
MSN/LN: 
38811 / 4108
Operator: 
Total Flights: 
20
Total Block Time: 
61.1 hrs
Total Flight Time: 
57.9 hrs
Total Fuel Used: 
344,832 lb
DATALINK LOG | Newest first | Current as of: 2022-10-05 22:00:46
LABEL SEQUENCE CONTENT Dn/Up
5Z09485 FEB 21 20:08:50z / FLT DECK GOOD / ACF POS GOOD / GRND SERVICES GOOD / MAINT FAILURES ACTIVE▼ Dn
QD084820:08 8.6▼ Dn
QC034320:03▼ Dn
GA4939GATE 7▲ Up
GR4929PHLI 20:03 HI-VAL NO DIPL/VIP NO▼ Dn
2U4515PHLI 051853Z 28004KT 10SM BKN070 19/13 A2991 RMK AO2 SLP127 T01940133▲ Up
2S4526PHLI▼ Dn
QB392019:38▼ Dn
QA250619:25 12.3▼ Dn
2U1513PHLI 051853Z 28004KT 10SM BKN070 19/13 A2991 RMK AO2 SLP127 T01940133▲ Up
2S1557PHLI▼ Dn
5Z13555 FEB 21 19:13:43z / FLT DECK GOOD / ACF POS GOOD / GRND SERVICES GOOD / MAINT GOOD▼ Dn
2U0755PHNL 051853Z 00000KT 10SM FEW025 FEW040 21/13 A2989 RMK AO2 SLP122 T02060128▲ Up
2S0749PHNL▼ Dn
A30152CLEARED TO PHLI VIA KEOLA2 LIH. SQUAWK 4751.▲ Up
B30143PHNL PHLI SWA875 N8315C D ▼ Dn
Q05234[LINK ACK]▲ Up
Q05234[LINK TEST]▼ Dn


AIRCRAFT HISTORY
FLIGHT DATE FLIGHT NO. ORIGIN DESTINATION CLEARED ROUTE BLOCK TIME FLIGHT TIME FUEL USED PILOT
2022-02-05SWA2867KLAS KAUS KLAS RUDYY SELLZ TTONE VIVVS SGFRD NIITZ IWANS SSKEE INW CNX KA21W KF15Y DILLO SZAGI LAIKS BOYZZ CRLOS HOUKM RW18L2.6 hrs2.3 hrs14,166 lbDan Downs
2022-01-18SWA1280KMDW KLAS KMDW PEKUE OBENE OGALE LNK DRABS HCT DVV DBL HVE GGAPP KLAS3.5 hrs3.4 hrs22,487 lbAlex K.
2022-01-12SWA4523KPHX KMDW KPHX ABQ FTI KENTO DRAWL GCK SLN AGENT KIDER IRK KMDW3.2 hrs3.1 hrs17,296 lbAlex K.
2022-01-12SWA8723PHLI KPHX PHLI LIH ZIKAB BOOKE SHIGI HNL CKH MABBL MKK EBBER ELOYI ERROT ETNIC ETECO EDSEL EDTOO ELKEY SXC JERKI BLH KPHX5.8 hrs5.7 hrs27,771 lbAlex K.
2022-01-06SWA1356KPHX PHLI KPHX HRRBR CURIV DECAS PSP PDZ LAX BEFIN DINTY DUETS DADIE DIALO DUSAC DRAYK ARROW MAGGI JOELE BAMBO GRITL CKH HNL SHIGI KEOLA GRAIL HUPUK NAPUA PHLI6.2 hrs6.1 hrs34,901 lbAlex K.
2021-12-07SWA1069PHNL KPHX PHNL EBBER ELOYI ERROT ETNIC ETECO FOOTS FICKY ROSIN MALIT GOATZ SXC TRM BLH KPHX5.9 hrs5.7 hrs33,063 lbAlex K.
2021-12-05SWA679KLAX PHNL KLAX DINTY DUETS DADIE DIALO DUSAC DRAYK DENNS PHNL5.4 hrs5.3 hrs35,265 lbAlex K.
2021-12-04SWA1066PHOG KLAX PHOG SWEEP FITES FAPIS FOMAS FIZEL FLITY FOOTS FICKY KLAX4.9 hrs4.8 hrs25,628 lbAlex K.
2021-12-04SWA621PHNL PHOG PHNL LNY PHOG0.5 hrs0.4 hrs2,747 lbAlex K.
2021-12-03SWA617KLAX PHNL KLAX DINTY DUETS DADIE DIALO DUSAC DRAYK DENNS PHNL5.5 hrs5.3 hrs29,553 lbAlex K.
2021-12-03SWA2941KSFO KLAX KSFO SUSEY EBAYE BURGL KLAX1.1 hrs1 hrs6,216 lbAlex K.
2021-04-28SWA3937KMDW KSFO KMDW PEKUE OBENE MONNY SMIDD FSD VIVID RAP HIKOX BPI MLD PARKA SLOWN SPOOK OSI KSFO3.9 hrs3.8 hrs24,435 lbAlex K.
2021-04-28SWA3499KPHX KMDW KPHX ABQ FTI KK42Y MCI IRK KMDW2.7 hrs2.6 hrs14,928 lbAlex K.
2021-02-08SWA735KSAN KPHX KSAN IPL HEEDS BZA HOGGZ KPHX1 hrs0.8 hrs5,700 lbAnton Vind
2021-02-06SWA1488PHNL KSAN PHNL EBBER ELOYI ERROT ETNIC ETECO EDSEL EDTOO ELKEY SXC KSAN5.4 hrs5.1 hrs29,582 lbAnton Vind
2021-02-05SWA877PHLI PHNL PHLI LIH OLOYI BOOKE SHIGI HNL PHNL0.4 hrs0.4 hrs2,637 lbAnton Vind
2021-02-05SWA875PHNL PHLI PHNL LIH PHLI0.6 hrs0.4 hrs3,539 lbAnton Vind
2021-02-04SWA729PHTO PHNL PHTO PARIS PAKKI WAPIO UPP LAVAS NIYIT LNY PHNL0.9 hrs0.7 hrs5,543 lbAnton Vind
2021-01-24SWA2591PHNL PHTO PHNL PULPS BONUS DEREC PUMIC PARIS ARBOR ITO PHTO0.9 hrs0.7 hrs5,372 lbMike Dryden
2021-01-23SWA588PHOG PHNL PHOG LNY PHNL0.8 hrs0.4 hrs4,004 lbMike Dryden